Time;durP1;ratioP1;P1;durP2;ratioP2;P2;SDS_P1;SDS_P2;PMS_P1;PMS_P2;Temp;Humidity;BMP_temperature;BMP_pressure;BME280_temperature;BME280_humidity;BME280_pressure;Samples;Min_cycle;Max_cycle;Signal;HPM_P1;HPM_P2
2022/01/29 00:02:27;;;;;;;3.98;1.77;;;;;;;0.54;100.00;98431.48;1705592;84;21056;-71
2022/01/29 00:04:54;;;;;;;2.77;1.52;;;;;;;0.53;100.00;98443.42;1705898;84;21070;-71
2022/01/29 00:07:20;;;;;;;3.05;1.62;;;;;;;0.51;100.00;98442.88;1705677;84;20995;-71
2022/01/29 00:09:48;;;;;;;4.08;1.95;;;;;;;0.49;100.00;98452.66;1705564;84;20924;-68
2022/01/29 00:12:16;;;;;;;4.28;2.00;;;;;;;0.48;100.00;98444.23;1705791;84;20993;-70
2022/01/29 00:14:45;;;;;;;2.67;1.60;;;;;;;0.50;100.00;98445.31;1705637;83;21508;-69
2022/01/29 00:17:13;;;;;;;2.10;1.37;;;;;;;0.50;100.00;98448.02;1705493;84;21164;-70
2022/01/29 00:19:41;;;;;;;3.05;1.30;;;;;;;0.51;100.00;98448.30;1705486;84;20889;-69
2022/01/29 00:22:09;;;;;;;1.95;1.57;;;;;;;0.49;100.00;98458.08;1705532;83;20994;-69
2022/01/29 00:24:38;;;;;;;2.92;1.72;;;;;;;0.48;100.00;98457.25;1705584;84;37866;-69
2022/01/29 00:27:09;;;;;;;2.85;1.50;;;;;;;0.44;100.00;98450.79;1705688;83;21020;-69
2022/01/29 00:29:38;;;;;;;3.47;1.35;;;;;;;0.42;100.00;98458.38;1705534;83;21962;-70
2022/01/29 00:32:06;;;;;;;1.95;1.30;;;;;;;0.42;100.00;98458.92;1705486;84;21538;-69
2022/01/29 00:34:33;;;;;;;4.15;2.00;;;;;;;0.43;100.00;98463.23;1705658;84;21530;-69
2022/01/29 00:37:03;;;;;;;3.37;1.70;;;;;;;0.41;100.00;98462.16;1705395;84;21005;-69
2022/01/29 00:39:30;;;;;;;3.37;1.67;;;;;;;0.38;100.00;98468.14;1705503;84;20925;-68
2022/01/29 00:41:58;;;;;;;4.72;2.17;;;;;;;0.36;100.00;98466.25;1677631;84;23340;-69
2022/01/29 00:44:27;;;;;;;2.92;1.75;;;;;;;0.35;100.00;98470.06;1705583;83;21493;-69
2022/01/29 00:46:56;;;;;;;3.77;1.95;;;;;;;0.34;100.00;98471.16;1705993;84;21048;-69
2022/01/29 00:49:22;;;;;;;3.35;1.25;;;;;;;0.28;100.00;98474.96;1705701;83;21040;-68
2022/01/29 00:51:50;;;;;;;4.03;2.00;;;;;;;0.28;100.00;98476.31;1705506;84;20988;-69
2022/01/29 00:54:18;;;;;;;4.45;1.90;;;;;;;0.28;100.00;98482.56;1706047;84;21107;-69
2022/01/29 00:56:45;;;;;;;2.80;1.42;;;;;;;0.28;100.00;98479.03;1705788;84;21463;-70
2022/01/29 00:59:11;;;;;;;3.40;1.77;;;;;;;0.26;100.00;98479.88;1705556;84;20937;-69
2022/01/29 01:01:37;;;;;;;1.80;1.12;;;;;;;0.25;100.00;98479.05;1705474;84;21001;-70
2022/01/29 01:04:04;;;;;;;2.70;1.37;;;;;;;0.27;100.00;98488.26;1705500;84;20972;-70
2022/01/29 01:06:31;;;;;;;2.35;1.47;;;;;;;0.29;100.00;98487.45;1705667;84;21056;-71
2022/01/29 01:08:57;;;;;;;3.15;1.45;;;;;;;0.29;100.00;98486.09;1706068;84;20996;-70
2022/01/29 01:11:25;;;;;;;3.83;1.90;;;;;;;0.30;100.00;98487.70;1677727;84;20989;-70
2022/01/29 01:13:52;;;;;;;1.98;1.30;;;;;;;0.28;100.00;98489.33;1709407;83;21559;-69
2022/01/29 01:16:20;;;;;;;1.98;1.50;;;;;;;0.11;100.00;98493.72;1716218;83;21103;-68
2022/01/29 01:18:46;;;;;;;2.45;1.72;;;;;;;0.16;100.00;98489.64;1716053;83;21143;-71
2022/01/29 01:21:12;;;;;;;5.97;2.20;;;;;;;0.15;100.00;98486.68;1716059;83;21031;-69
2022/01/29 01:23:41;;;;;;;3.15;1.98;;;;;;;0.14;100.00;98489.66;1716475;83;20938;-69
2022/01/29 01:26:07;;;;;;;4.40;2.15;;;;;;;0.11;100.00;98497.78;1716016;83;20909;-70
2022/01/29 01:28:34;;;;;;;3.92;1.60;;;;;;;0.12;100.00;98499.40;1716110;83;21031;-69
2022/01/29 01:31:01;;;;;;;3.58;1.60;;;;;;;0.09;100.00;98506.73;1716081;83;21425;-69
2022/01/29 01:33:29;;;;;;;3.15;1.55;;;;;;;0.08;100.00;98510.53;1715985;83;20944;-70
2022/01/29 01:36:00;;;;;;;5.17;2.05;;;;;;;0.03;100.00;98514.08;1716047;83;21098;-70
2022/01/29 01:38:47;;;;;;;2.60;1.27;;;;;;;0.05;100.00;98511.09;1715903;83;21040;-70
2022/01/29 01:41:13;;;;;;;4.15;1.60;;;;;;;0.07;100.00;98521.12;1715756;83;20849;-70
2022/01/29 01:43:37;;;;;;;3.22;1.40;;;;;;;0.06;100.00;98522.18;1715876;81;21630;-70
2022/01/29 01:46:04;;;;;;;2.33;1.50;;;;;;;0.09;100.00;98519.73;1715987;83;20979;-69
2022/01/29 01:48:30;;;;;;;4.75;2.15;;;;;;;0.11;100.00;98528.41;1716140;83;21105;-70
2022/01/29 01:50:57;;;;;;;2.25;1.10;;;;;;;0.03;100.00;98526.80;1716003;83;20904;-70
2022/01/29 01:53:24;;;;;;;1.95;1.42;;;;;;;0.05;100.00;98532.77;1697057;83;21490;-70
2022/01/29 01:55:51;;;;;;;2.33;1.57;;;;;;;0.04;100.00;98531.94;1658183;86;21269;-70
2022/01/29 01:58:18;;;;;;;2.05;1.50;;;;;;;0.00;100.00;98540.36;1707291;84;20906;-70
2022/01/29 02:00:45;;;;;;;2.02;1.10;;;;;;;-0.01;100.00;98540.90;1707256;84;21620;-70
2022/01/29 02:03:12;;;;;;;2.77;1.50;;;;;;;-0.03;100.00;98550.37;1707238;84;20910;-70
2022/01/29 02:05:38;;;;;;;2.92;1.30;;;;;;;-0.05;100.00;98550.64;1707218;84;20938;-70
2022/01/29 02:08:05;;;;;;;3.02;0.93;;;;;;;-0.03;100.00;98553.90;1707323;84;21001;-70
2022/01/29 02:10:34;;;;;;;1.45;1.00;;;;;;;0.01;100.00;98553.34;1689111;84;20890;-69
2022/01/29 02:13:03;;;;;;;2.47;1.25;;;;;;;-0.03;100.00;98558.49;1707250;84;21407;-70
2022/01/29 02:15:30;;;;;;;3.58;1.30;;;;;;;-0.04;100.00;98557.70;1721078;83;21406;-70
2022/01/29 02:17:56;;;;;;;1.37;0.98;;;;;;;-0.03;100.00;98562.02;1679962;85;20944;-70
2022/01/29 02:20:30;;;;;;;2.85;1.35;;;;;;;-0.01;100.00;98565.28;1698481;83;21152;-69
2022/01/29 02:22:57;;;;;;;4.30;1.37;;;;;;;0.01;100.00;98569.06;1680085;85;21004;-69
2022/01/29 02:25:46;;;;;;;3.33;1.55;;;;;;;0.02;100.00;98572.59;1723395;83;21509;-70
2022/01/29 02:28:22;;;;;;;3.20;1.57;;;;;;;0.04;100.00;98573.11;1679996;85;21522;-69
2022/01/29 02:30:57;;;;;;;2.22;1.10;;;;;;;0.04;100.00;98578.53;1722851;83;20956;-70
2022/01/29 02:33:22;;;;;;;3.58;1.25;;;;;;;0.02;100.00;98584.78;1679906;85;21097;-69
2022/01/29 02:35:50;;;;;;;3.00;1.12;;;;;;;-0.03;100.00;98586.94;1723103;83;20937;-70
2022/01/29 02:38:20;;;;;;;3.08;1.50;;;;;;;-0.02;100.00;98594.78;1680065;85;21584;-70
2022/01/29 02:40:52;;;;;;;1.75;0.93;;;;;;;-0.04;100.00;98600.22;1723062;83;20973;-70
2022/01/29 02:43:26;;;;;;;3.37;1.07;;;;;;;-0.42;100.00;98608.07;1679955;85;20925;-69
2022/01/29 02:45:53;;;;;;;2.15;1.27;;;;;;;-0.16;100.00;98609.98;1723356;83;21125;-69
2022/01/29 02:48:21;;;;;;;2.02;1.10;;;;;;;-0.17;100.00;98605.09;1679967;85;21533;-71
2022/01/29 02:50:47;;;;;;;3.65;1.37;;;;;;;-0.19;100.00;98614.59;1722860;83;20898;-69
2022/01/29 02:53:15;;;;;;;4.72;1.65;;;;;;;-0.18;100.00;98621.61;1679847;85;20943;-68
2022/01/29 02:55:42;;;;;;;2.77;1.32;;;;;;;-0.18;100.00;98616.20;1722753;83;21005;-69
2022/01/29 02:58:08;;;;;;;3.45;1.05;;;;;;;-0.16;100.00;98620.28;1679944;85;21148;-69
2022/01/29 03:00:35;;;;;;;2.83;1.50;;;;;;;-0.19;100.00;98628.95;1722745;83;21529;-69
2022/01/29 03:03:04;;;;;;;2.42;1.17;;;;;;;0.14;100.00;98630.56;1679859;85;20963;-69
2022/01/29 03:05:32;;;;;;;1.30;0.90;;;;;;;1.26;100.00;98638.34;1722791;83;20981;-67
2022/01/29 03:07:59;;;;;;;2.42;0.80;;;;;;;0.24;100.00;98640.83;1679982;85;20995;-69
2022/01/29 03:10:26;;;;;;;3.00;1.02;;;;;;;0.41;100.00;98647.84;1722981;83;21493;-69
2022/01/29 03:12:54;;;;;;;4.60;1.22;;;;;;;2.83;100.00;98641.95;1679765;85;21007;-70
2022/01/29 03:15:20;;;;;;;2.37;1.20;;;;;;;0.20;100.00;98653.31;1657456;85;21141;-69
2022/01/29 03:17:48;;;;;;;3.77;1.80;;;;;;;-0.01;100.00;98656.56;1687298;85;21443;-70
2022/01/29 03:20:15;;;;;;;3.95;1.80;;;;;;;-0.07;100.00;98663.07;1687300;85;21060;-69
2022/01/29 03:22:42;;;;;;;3.10;1.50;;;;;;;-0.10;100.00;98660.91;1687309;85;22362;-69
2022/01/29 03:25:10;;;;;;;3.77;1.40;;;;;;;-0.09;100.00;98666.05;1687248;85;20921;-72
2022/01/29 03:27:38;;;;;;;3.05;2.00;;;;;;;-0.03;100.00;98670.38;1687278;85;21441;-69
2022/01/29 03:30:06;;;;;;;4.50;1.92;;;;;;;-0.06;100.00;98679.58;1687304;85;20945;-68
2022/01/29 03:32:32;;;;;;;5.55;1.40;;;;;;;-0.08;100.00;98678.50;1687429;85;21108;-70
2022/01/29 03:34:59;;;;;;;3.80;2.15;;;;;;;-0.06;100.00;98677.70;1687277;85;21157;-69
2022/01/29 03:37:25;;;;;;;5.45;1.77;;;;;;;-0.07;100.00;98678.76;1687181;85;20905;-69
2022/01/29 03:39:57;;;;;;;1.35;1.00;;;;;;;-0.06;100.00;98676.34;1687399;85;21126;-69
2022/01/29 03:42:23;;;;;;;4.20;1.52;;;;;;;-0.06;100.00;98692.59;1686889;85;20957;-71
2022/01/29 03:44:49;;;;;;;2.10;1.15;;;;;;;-0.09;100.00;98705.33;1687366;85;20981;-67
2022/01/29 03:47:17;;;;;;;3.85;1.85;;;;;;;-0.12;100.00;98700.45;1687298;85;21089;-68
2022/01/29 03:49:44;;;;;;;1.60;1.02;;;;;;;-0.14;100.00;98702.05;1687302;85;20989;-69
2022/01/29 03:52:11;;;;;;;2.87;1.42;;;;;;;-0.15;100.00;98703.67;1687567;85;21394;-68
2022/01/29 03:54:38;;;;;;;1.90;0.98;;;;;;;-0.14;100.00;98713.44;1687278;85;21442;-69
2022/01/29 03:57:06;;;;;;;3.20;1.30;;;;;;;-0.13;100.00;98711.82;1687365;85;21021;-68
2022/01/29 03:59:32;;;;;;;6.72;1.72;;;;;;;-0.11;100.00;98714.25;1687208;85;21127;-69
2022/01/29 04:02:01;;;;;;;1.95;1.10;;;;;;;-0.09;100.00;98722.11;1687046;85;20942;-66
2022/01/29 04:04:27;;;;;;;2.15;1.10;;;;;;;-0.07;100.00;98731.58;1687577;85;21429;-69
2022/01/29 04:06:54;;;;;;;2.20;0.90;;;;;;;-0.07;100.00;98726.16;1687446;85;21493;-68
2022/01/29 04:09:21;;;;;;;2.52;1.42;;;;;;;-0.06;100.00;98728.34;1687454;85;20964;-70
2022/01/29 04:11:48;;;;;;;1.17;0.93;;;;;;;-0.04;100.00;98736.48;1687585;85;21126;-69
2022/01/29 04:14:20;;;;;;;4.95;1.55;;;;;;;-0.03;100.00;98734.03;1686523;83;21048;-69
2022/01/29 04:16:47;;;;;;;4.75;1.98;;;;;;;-0.03;100.00;98744.88;1674729;84;21014;-70
2022/01/29 04:19:15;;;;;;;5.50;1.77;;;;;;;0.01;100.00;98739.73;1675538;85;20961;-69
2022/01/29 04:21:41;;;;;;;4.17;1.85;;;;;;;0.03;100.00;98747.06;1675247;85;20933;-69
2022/01/29 04:24:08;;;;;;;5.47;1.82;;;;;;;-0.03;100.00;98751.64;1675346;85;21176;-69
2022/01/29 04:26:35;;;;;;;4.58;2.20;;;;;;;-0.01;100.00;98753.55;1675144;85;20945;-70
2022/01/29 04:29:07;;;;;;;8.15;1.92;;;;;;;-0.03;100.00;98765.19;1675312;85;21451;-70
2022/01/29 04:31:41;;;;;;;4.70;1.50;;;;;;;-0.04;100.00;98763.58;1675178;85;20980;-70
2022/01/29 04:34:04;;;;;;;2.80;1.47;;;;;;;-0.05;100.00;98770.05;1674610;85;21017;-68
2022/01/29 04:36:31;;;;;;;2.75;1.32;;;;;;;-0.03;100.00;98777.38;1675304;85;21074;-70
2022/01/29 04:38:57;;;;;;;4.12;2.00;;;;;;;-0.02;100.00;98778.20;1675386;85;21450;-70
2022/01/29 04:41:23;;;;;;;2.30;1.37;;;;;;;-0.01;100.00;98783.35;1675210;85;20977;-70
2022/01/29 04:43:52;;;;;;;3.42;1.52;;;;;;;-0.01;100.00;98784.70;1675217;85;20970;-69
2022/01/29 04:46:21;;;;;;;4.05;1.52;;;;;;;-0.06;100.00;98784.70;1675307;85;20933;-69
2022/01/29 04:48:47;;;;;;;3.47;1.70;;;;;;;-0.08;100.00;98790.91;1675278;85;21216;-70
2022/01/29 04:51:13;;;;;;;3.17;1.30;;;;;;;-0.08;100.00;98786.84;1675149;85;20941;-70
2022/01/29 04:53:41;;;;;;;3.22;1.22;;;;;;;-0.09;100.00;98786.59;1675218;85;20987;-70
2022/01/29 04:56:07;;;;;;;2.42;0.85;;;;;;;-0.10;100.00;98787.65;1675241;85;21502;-69
2022/01/29 04:58:35;;;;;;;1.52;0.90;;;;;;;-0.14;100.00;98794.70;1675258;85;20914;-70
2022/01/29 05:01:01;;;;;;;2.60;1.15;;;;;;;-0.15;100.00;98797.11;1675226;85;21150;-69
2022/01/29 05:03:27;;;;;;;1.17;1.00;;;;;;;-0.14;100.00;98805.53;1675449;85;20933;-69
2022/01/29 05:05:54;;;;;;;1.30;1.05;;;;;;;-0.15;100.00;98803.88;1675435;85;21032;-69
2022/01/29 05:08:24;;;;;;;3.42;2.02;;;;;;;-0.15;100.00;98800.64;1675170;85;21133;-70
2022/01/29 05:10:51;;;;;;;2.70;1.47;;;;;;;-0.15;100.00;98805.23;1675224;85;20894;-69
2022/01/29 05:13:22;;;;;;;2.90;1.70;;;;;;;-0.14;100.00;98804.17;1675157;85;21185;-69
2022/01/29 05:16:06;;;;;;;5.33;2.25;;;;;;;-0.10;100.00;98806.61;1675071;84;21446;-69
2022/01/29 05:26:52;;;;;;;3.60;1.90;;;;;;;-0.15;100.00;98822.31;1675369;85;21178;-70
2022/01/29 05:29:18;;;;;;;4.30;2.27;;;;;;;-0.13;100.00;98822.05;1675246;85;20858;-69
2022/01/29 05:31:50;;;;;;;2.50;1.55;;;;;;;-0.14;100.00;98834.77;1675349;85;21478;-69
2022/01/29 05:34:14;;;;;;;2.47;1.55;;;;;;;-0.13;100.00;98840.47;1674780;85;21502;-69
2022/01/29 05:36:40;;;;;;;3.02;1.47;;;;;;;-0.10;100.00;98841.82;1675554;85;20926;-70
2022/01/29 05:39:08;;;;;;;4.80;1.60;;;;;;;-0.13;100.00;98849.95;1675172;85;21088;-69
2022/01/29 05:41:35;;;;;;;1.85;1.10;;;;;;;-0.12;100.00;98856.20;1675141;85;21481;-70
2022/01/29 05:44:01;;;;;;;2.98;1.17;;;;;;;-0.15;100.00;98857.52;1675194;85;20918;-69
2022/01/29 05:46:28;;;;;;;2.35;0.98;;;;;;;-0.16;100.00;98863.20;1675635;85;20922;-69
2022/01/29 05:48:54;;;;;;;1.02;0.80;;;;;;;-0.21;100.00;98869.95;1675292;85;21073;-68
2022/01/29 05:51:21;;;;;;;1.50;1.22;;;;;;;-0.39;100.00;98878.80;1675372;85;21155;-70
2022/01/29 05:53:51;;;;;;;1.35;0.90;;;;;;;-0.45;100.00;98884.74;1675262;85;21427;-67
2022/01/29 05:56:18;;;;;;;1.02;0.80;;;;;;;-0.53;100.00;98895.51;1675590;85;20986;-70
2022/01/29 05:58:44;;;;;;;1.00;0.90;;;;;;;-0.23;100.00;98898.66;1675366;85;20946;-69
2022/01/29 06:01:10;;;;;;;3.33;1.27;;;;;;;3.55;98.41;98903.09;1675298;85;20898;-70
2022/01/29 06:03:37;;;;;;;1.10;1.00;;;;;;;-0.10;100.00;98914.16;1675308;85;21483;-68
2022/01/29 06:06:03;;;;;;;2.35;1.20;;;;;;;-0.39;100.00;98922.11;1675403;85;20937;-70
2022/01/29 06:08:30;;;;;;;5.62;1.60;;;;;;;-0.47;100.00;98918.55;1675270;85;20870;-69
2022/01/29 06:10:57;;;;;;;1.17;1.02;;;;;;;-0.20;100.00;98920.32;1675286;85;22011;-68
2022/01/29 06:13:24;;;;;;;3.90;2.58;;;;;;;-0.51;100.00;98935.84;1675255;85;21005;-70
2022/01/29 06:15:53;;;;;;;3.37;2.00;;;;;;;-0.57;100.00;98928.25;1675256;84;21415;-69
2022/01/29 06:18:22;;;;;;;2.62;1.50;;;;;;;-0.57;100.00;98930.95;1675240;85;21021;-69
2022/01/29 06:20:56;;;;;;;4.35;2.27;;;;;;;-0.53;100.00;98933.41;1675165;85;21406;-69
2022/01/29 06:23:34;;;;;;;3.85;2.30;;;;;;;-0.53;100.00;98942.88;1675363;85;21052;-69
2022/01/29 06:25:51;;;;;;;5.70;2.45;;;;;;;-0.54;100.00;98937.20;1674133;85;21431;-69
2022/01/29 06:28:18;;;;;;;5.37;2.60;;;;;;;-0.55;100.00;98943.70;1675265;85;21159;-69
2022/01/29 06:30:44;;;;;;;7.75;2.58;;;;;;;-0.52;100.00;98943.70;1675744;85;20964;-70
2022/01/29 06:33:13;;;;;;;7.15;3.00;;;;;;;-0.51;100.00;98942.09;1675380;85;20961;-69
2022/01/29 06:35:42;;;;;;;3.60;1.62;;;;;;;-0.49;100.00;98943.17;1675937;85;20906;-70
2022/01/29 06:38:12;;;;;;;7.65;2.08;;;;;;;-0.45;100.00;98948.89;1675533;85;21001;-68
2022/01/29 06:40:40;;;;;;;8.20;1.75;;;;;;;-0.45;100.00;98952.42;1675377;85;21101;-69
2022/01/29 06:43:08;;;;;;;3.50;1.40;;;;;;;-0.47;100.00;98954.57;1675344;85;20858;-69
2022/01/29 06:45:36;;;;;;;4.95;2.77;;;;;;;-0.49;100.00;98959.42;1675218;85;20910;-69
2022/01/29 06:48:04;;;;;;;4.45;1.85;;;;;;;-0.46;100.00;98960.25;1675246;85;21459;-69
2022/01/29 06:50:33;;;;;;;5.53;2.40;;;;;;;-0.43;100.00;98959.75;1675416;85;21410;-70
2022/01/29 06:53:05;;;;;;;5.55;2.70;;;;;;;-0.39;100.00;98970.32;1675254;85;22324;-68
2022/01/29 06:55:33;;;;;;;4.42;2.37;;;;;;;-0.33;100.00;98980.66;1675344;85;21528;-68
2022/01/29 06:58:01;;;;;;;6.75;3.20;;;;;;;-0.32;100.00;98976.03;1675574;85;21081;-69
2022/01/29 07:00:28;;;;;;;8.95;4.05;;;;;;;-0.29;100.00;98980.95;1675586;85;20966;-69
2022/01/29 07:02:55;;;;;;;16.00;6.95;;;;;;;-0.25;100.00;98986.11;1675340;85;21037;-70
2022/01/29 07:05:22;;;;;;;11.80;5.72;;;;;;;-0.23;100.00;98987.20;1675415;85;21896;-69
2022/01/29 07:07:51;;;;;;;6.85;3.37;;;;;;;-0.22;100.00;98981.52;1675368;85;20966;-69
2022/01/29 07:10:18;;;;;;;4.60;2.02;;;;;;;-0.26;100.00;98983.94;1648232;85;21001;-70
2022/01/29 07:12:46;;;;;;;4.17;1.65;;;;;;;-0.25;100.00;98991.53;1675291;85;20990;-70
2022/01/29 07:15:13;;;;;;;2.62;1.65;;;;;;;-0.26;100.00;98994.77;1675280;84;21008;-69
2022/01/29 07:17:40;;;;;;;5.87;2.52;;;;;;;-0.30;100.00;98994.20;1687468;85;21804;-70
2022/01/29 07:20:08;;;;;;;7.75;1.90;;;;;;;-0.36;100.00;99008.27;1687330;85;20988;-69
2022/01/29 07:22:35;;;;;;;4.80;2.62;;;;;;;-0.46;100.00;99005.48;1687751;85;20945;-70
2022/01/29 07:25:01;;;;;;;8.68;2.62;;;;;;;-0.48;100.00;99008.97;1687474;85;21516;-69
2022/01/29 07:27:28;;;;;;;3.40;1.15;;;;;;;-0.52;100.00;99007.31;1687694;85;21419;-70
2022/01/29 07:29:55;;;;;;;3.35;1.67;;;;;;;-0.50;100.00;99020.06;1687412;85;21149;-70
2022/01/29 07:32:22;;;;;;;5.53;1.85;;;;;;;-0.48;100.00;99030.63;1687531;85;20959;-70
2022/01/29 07:34:50;;;;;;;3.35;1.35;;;;;;;-0.53;100.00;99026.00;1687374;85;20929;-69
2022/01/29 07:37:16;;;;;;;4.05;2.37;;;;;;;-0.52;100.00;99018.97;1687557;85;20989;-70
2022/01/29 07:39:42;;;;;;;6.75;2.42;;;;;;;-0.47;100.00;99032.25;1687456;85;20990;-70
2022/01/29 07:42:09;;;;;;;7.60;2.85;;;;;;;-0.45;100.00;99033.64;1687332;85;21064;-69
2022/01/29 07:44:35;;;;;;;4.55;2.40;;;;;;;-0.40;100.00;99034.21;1687254;85;21636;-69
2022/01/29 07:47:02;;;;;;;4.53;2.00;;;;;;;-0.45;100.00;99043.12;1687402;85;21446;-69
2022/01/29 07:49:30;;;;;;;3.42;1.82;;;;;;;-0.48;100.00;99044.17;1687289;85;20968;-70
2022/01/29 07:51:57;;;;;;;3.80;1.95;;;;;;;-0.52;100.00;99050.63;1687354;85;20960;-69
2022/01/29 07:54:24;;;;;;;3.27;2.00;;;;;;;-0.56;100.00;99054.38;1687375;85;21506;-69
2022/01/29 07:56:50;;;;;;;4.05;2.30;;;;;;;-0.54;100.00;99060.36;1687248;85;20929;-69
2022/01/29 07:59:16;;;;;;;6.00;1.98;;;;;;;-0.53;100.00;99057.92;1687254;85;20940;-71
2022/01/29 08:01:47;;;;;;;6.12;3.60;;;;;;;-0.52;100.00;99059.58;1687406;85;21037;-69
2022/01/29 08:04:14;;;;;;;4.55;2.35;;;;;;;-0.47;100.00;99060.67;1687534;85;21001;-70
2022/01/29 08:06:43;;;;;;;2.62;1.85;;;;;;;-0.50;100.00;99064.20;1687294;85;21322;-71
2022/01/29 08:09:10;;;;;;;4.67;2.60;;;;;;;-0.51;100.00;99069.32;1687254;85;20949;-70
2022/01/29 08:11:37;;;;;;;8.33;3.55;;;;;;;-0.50;100.00;99068.27;1687340;85;21060;-70
2022/01/29 08:14:06;;;;;;;7.95;4.28;;;;;;;-0.46;100.00;99068.54;1687269;85;21068;-70
2022/01/29 08:16:32;;;;;;;4.65;2.52;;;;;;;-0.41;100.00;99084.03;1687434;84;20959;-70
2022/01/29 08:19:01;;;;;;;6.00;2.87;;;;;;;-0.38;100.00;99078.09;1687216;85;21582;-71
2022/01/29 08:21:29;;;;;;;3.85;1.90;;;;;;;-0.40;100.00;99072.95;1687520;85;21434;-71
2022/01/29 08:23:57;;;;;;;8.25;3.17;;;;;;;-0.41;100.00;99077.27;1687278;85;21537;-70
2022/01/29 08:26:27;;;;;;;4.78;2.52;;;;;;;-0.39;100.00;99080.51;1687664;85;21482;-70
2022/01/29 08:28:53;;;;;;;5.67;2.95;;;;;;;-0.33;100.00;99081.38;1687733;85;21056;-70
2022/01/29 08:31:21;;;;;;;4.30;2.00;;;;;;;-0.29;100.00;99094.13;1687636;85;21031;-71
2022/01/29 08:33:50;;;;;;;5.05;2.33;;;;;;;-0.31;100.00;99088.19;1687353;85;20894;-70
2022/01/29 08:36:18;;;;;;;8.15;3.35;;;;;;;-0.30;100.00;99088.98;1687541;85;20998;-69
2022/01/29 08:38:45;;;;;;;5.85;2.62;;;;;;;-0.28;100.00;99093.08;1687294;85;20945;-69
2022/01/29 08:41:12;;;;;;;13.88;3.92;;;;;;;-0.37;100.00;99094.08;1687290;85;20897;-70
2022/01/29 08:43:38;;;;;;;11.60;3.62;;;;;;;-0.35;100.00;99097.88;1687412;85;21146;-70
2022/01/29 08:46:06;;;;;;;7.67;4.03;;;;;;;-0.30;100.00;99099.28;1687286;85;20973;-69
2022/01/29 08:48:33;;;;;;;11.33;4.95;;;;;;;-0.27;100.00;99104.70;1687548;85;21032;-70
2022/01/29 08:50:59;;;;;;;20.62;5.75;;;;;;;-0.22;100.00;99103.95;1687764;85;20949;-71
2022/01/29 08:53:26;;;;;;;14.40;5.08;;;;;;;-0.20;100.00;99111.27;1687486;85;21500;-70
2022/01/29 08:55:52;;;;;;;18.07;5.92;;;;;;;-0.18;100.00;99115.89;1687438;85;21075;-69
2022/01/29 08:58:19;;;;;;;10.48;4.12;;;;;;;-0.18;100.00;99121.31;1687759;85;20909;-69
2022/01/29 09:00:45;;;;;;;9.28;3.67;;;;;;;-0.15;100.00;99118.08;1687289;85;21484;-70
2022/01/29 09:03:18;;;;;;;9.58;3.87;;;;;;;-0.12;100.00;99118.94;1687464;85;20961;-70
2022/01/29 09:05:46;;;;;;;15.08;6.12;;;;;;;-0.09;100.00;99125.19;1687426;85;21060;-70
2022/01/29 09:08:15;;;;;;;9.60;3.83;;;;;;;-0.09;100.00;99129.25;1687034;85;22132;-70
2022/01/29 09:10:41;;;;;;;5.08;2.90;;;;;;;-0.08;100.00;99128.69;1687393;85;21386;-69
2022/01/29 09:13:10;;;;;;;12.70;3.47;;;;;;;-0.11;100.00;99125.16;1687270;85;20997;-69
2022/01/29 09:15:36;;;;;;;7.95;3.50;;;;;;;-0.19;100.00;99127.28;1687511;85;20894;-70
2022/01/29 09:18:05;;;;;;;4.53;2.37;;;;;;;-0.16;100.00;99124.58;1676055;83;20977;-70
2022/01/29 09:20:32;;;;;;;8.50;3.65;;;;;;;-0.16;100.00;99125.94;1674929;85;21553;-70
2022/01/29 09:23:00;;;;;;;9.50;5.37;;;;;;;-0.15;100.00;99137.86;1675342;85;21410;-70
2022/01/29 09:25:29;;;;;;;9.93;4.45;;;;;;;-0.13;100.00;99138.95;1675262;85;20926;-70
2022/01/29 09:27:58;;;;;;;10.13;3.95;;;;;;;-0.09;100.00;99145.50;1675457;85;21454;-69
2022/01/29 09:30:29;;;;;;;8.85;4.08;;;;;;;-0.06;100.00;99136.03;1675591;85;21481;-69
2022/01/29 09:33:01;;;;;;;;;;;;;;;-0.07;100.00;99139.27;1677869;85;21170;-70
2022/01/29 09:35:27;;;;;;;6.05;2.72;;;;;;;-0.07;100.00;99141.19;1675668;85;20165;-70
2022/01/29 09:37:54;;;;;;;6.00;3.27;;;;;;;-0.07;100.00;99143.89;1675368;85;20977;-70
2022/01/29 09:40:22;;;;;;;7.47;2.52;;;;;;;-0.04;100.00;99147.44;1675216;85;21542;-72
2022/01/29 09:42:50;;;;;;;4.90;2.75;;;;;;;-0.05;100.00;99144.45;1675396;85;20882;-71
2022/01/29 09:45:19;;;;;;;8.25;2.90;;;;;;;-0.07;100.00;99143.89;1675422;85;21173;-72
2022/01/29 09:47:47;;;;;;;4.92;2.55;;;;;;;-0.11;100.00;99142.23;1675301;85;20989;-70
2022/01/29 09:50:19;;;;;;;6.97;3.10;;;;;;;-0.08;100.00;99143.06;1675460;85;21021;-70
2022/01/29 09:52:48;;;;;;;9.18;3.58;;;;;;;-0.11;100.00;99150.89;1675578;85;20961;-70
2022/01/29 09:55:19;;;;;;;5.60;2.98;;;;;;;-0.11;100.00;99154.42;1675395;85;20945;-71
2022/01/29 09:57:47;;;;;;;10.50;3.20;;;;;;;-0.07;100.00;99158.23;1648645;85;22151;-71
2022/01/29 10:00:15;;;;;;;4.05;1.90;;;;;;;-0.07;100.00;99155.52;1675374;85;21088;-70
2022/01/29 10:02:47;;;;;;;5.25;2.83;;;;;;;-0.08;100.00;99155.25;1675210;85;21041;-71
2022/01/29 10:05:14;;;;;;;7.50;3.30;;;;;;;-0.12;100.00;99158.22;1674092;85;21561;-68
2022/01/29 10:07:43;;;;;;;4.65;2.10;;;;;;;-0.15;100.00;99167.66;1648591;85;21052;-69
2022/01/29 10:10:18;;;;;;;6.37;2.65;;;;;;;-0.26;100.00;99168.65;1675370;85;21308;-70
2022/01/29 10:12:47;;;;;;;7.58;2.90;;;;;;;-0.30;100.00;99160.22;1675527;84;21002;-71
2022/01/29 10:15:15;;;;;;;4.72;2.27;;;;;;;-0.33;100.00;99168.86;1675447;85;21084;-70
2022/01/29 10:17:53;;;;;;;4.72;2.55;;;;;;;-0.32;100.00;99177.25;1683142;84;21490;-71
2022/01/29 10:20:29;;;;;;;4.83;2.50;;;;;;;-0.29;100.00;99174.02;1687395;85;21048;-70
2022/01/29 10:23:04;;;;;;;5.87;3.00;;;;;;;-0.29;100.00;99172.67;1687479;85;21047;-67
2022/01/29 10:25:36;;;;;;;8.08;3.00;;;;;;;-0.28;100.00;99178.91;1687064;85;21434;-71
2022/01/29 10:28:20;;;;;;;3.45;2.17;;;;;;;-0.29;100.00;99177.29;1687719;85;21462;-71
2022/01/29 10:31:03;;;;;;;5.15;2.42;;;;;;;-0.34;100.00;99182.09;1687337;85;20893;-71
2022/01/29 10:33:35;;;;;;;4.90;1.98;;;;;;;-0.31;100.00;99184.84;1687331;85;21009;-70
2022/01/29 10:36:11;;;;;;;4.65;2.27;;;;;;;-0.34;100.00;99197.55;1687600;85;21154;-71
2022/01/29 10:38:48;;;;;;;3.30;2.00;;;;;;;-0.34;100.00;99197.55;1665737;84;21032;-72
2022/01/29 10:41:31;;;;;;;3.75;1.70;;;;;;;-0.33;100.00;99195.94;1687286;85;20905;-69
2022/01/29 10:44:21;;;;;;;4.15;1.80;;;;;;;-0.31;100.00;99190.27;1687391;85;20945;-70
2022/01/29 10:46:54;;;;;;;6.62;2.67;;;;;;;-0.29;100.00;99195.69;1687496;85;20940;-70
2022/01/29 11:04:08;;;;;;;9.13;2.50;;;;;;;-0.17;100.00;99194.73;1798244;79;22327;-70
2022/01/29 11:06:43;;;;;;;4.90;2.52;;;;;;;-0.21;100.00;99203.08;1758274;81;20905;-70
2022/01/29 11:09:04;;;;;;;9.65;2.67;;;;;;;-0.23;100.00;99201.98;1757729;81;21134;-69
2022/01/29 11:11:33;;;;;;;4.80;2.35;;;;;;;-0.25;100.00;99198.70;1758188;81;21473;-70
2022/01/29 11:14:00;;;;;;;7.40;2.47;;;;;;;-0.25;100.00;99202.24;1758421;81;20921;-70
2022/01/29 11:16:29;;;;;;;6.78;2.47;;;;;;;-0.22;100.00;99204.96;1758162;80;20948;-70
2022/01/29 11:18:56;;;;;;;6.67;2.55;;;;;;;-0.22;100.00;99200.90;1758280;81;20909;-69
2022/01/29 11:21:23;;;;;;;8.05;3.58;;;;;;;-0.25;100.00;99208.19;1758307;81;21155;-71
2022/01/29 11:23:55;;;;;;;12.75;4.47;;;;;;;-0.23;100.00;99203.87;1758071;81;20877;-69
2022/01/29 11:26:22;;;;;;;12.78;4.28;;;;;;;-0.23;100.00;99198.45;1758277;81;20972;-72
2022/01/29 11:28:49;;;;;;;10.13;3.55;;;;;;;-0.19;100.00;99202.30;1758501;81;20933;-71
2022/01/29 11:31:19;;;;;;;6.97;2.92;;;;;;;-0.17;100.00;99200.16;1758238;81;20988;-69
2022/01/29 11:34:08;;;;;;;5.72;2.20;;;;;;;-0.15;100.00;99204.23;1758504;81;21824;-71
2022/01/29 11:36:53;;;;;;;11.03;2.70;;;;;;;-0.11;100.00;99204.53;1758366;81;21003;-68
2022/01/29 11:39:26;;;;;;;5.70;2.30;;;;;;;-0.10;100.00;99215.64;1758158;80;21532;-69
2022/01/29 11:42:14;;;;;;;6.60;2.60;;;;;;;-0.12;100.00;99215.10;1758242;81;20960;-70
2022/01/29 11:44:41;;;;;;;5.25;2.45;;;;;;;-0.17;100.00;99226.68;1758406;81;21015;-70
2022/01/29 11:47:30;;;;;;;7.80;2.80;;;;;;;-0.17;100.00;99220.47;1757924;81;21104;-71
2022/01/29 11:50:25;;;;;;;12.63;3.87;;;;;;;-0.21;100.00;99215.27;1758613;81;20917;-70
2022/01/29 11:53:04;;;;;;;6.75;2.87;;;;;;;-0.25;100.00;99221.20;1758241;81;20929;-71
2022/01/29 11:55:41;;;;;;;11.40;4.20;;;;;;;-0.18;100.00;99224.23;1758612;81;21509;-72
2022/01/29 11:58:20;;;;;;;5.87;2.87;;;;;;;-0.14;100.00;99234.30;1743369;81;21019;-71